sensor_id;sensor_type;location;lat;lon;timestamp;pressure;altitude;pressure_sealevel;temperature;humidity
7670;BME280;3877;42.562;27.636;2022-07-10T00:00:46;100852.03;;;23.86;100.00
7670;BME280;3877;42.562;27.636;2022-07-10T00:03:14;100861.44;;;23.97;100.00
7670;BME280;3877;42.562;27.636;2022-07-10T00:05:41;100859.78;;;23.96;100.00
7670;BME280;3877;42.562;27.636;2022-07-10T00:08:08;100861.84;;;23.96;100.00
7670;BME280;3877;42.562;27.636;2022-07-10T00:10:35;100843.84;;;23.95;100.00
7670;BME280;3877;42.562;27.636;2022-07-10T00:13:04;100823.47;;;23.69;100.00
7670;BME280;3877;42.562;27.636;2022-07-10T00:15:31;100841.81;;;23.92;100.00
7670;BME280;3877;42.562;27.636;2022-07-10T00:17:59;100849.59;;;23.88;100.00
7670;BME280;3877;42.562;27.636;2022-07-10T00:20:26;100851.25;;;23.89;100.00
7670;BME280;3877;42.562;27.636;2022-07-10T00:22:53;100852.88;;;23.83;100.00
7670;BME280;3877;42.562;27.636;2022-07-10T00:25:21;100861.06;;;23.74;100.00
7670;BME280;3877;42.562;27.636;2022-07-10T00:27:48;100858.63;;;23.55;100.00
7670;BME280;3877;42.562;27.636;2022-07-10T00:30:17;100864.66;;;23.11;100.00
7670;BME280;3877;42.562;27.636;2022-07-10T00:32:44;100843.81;;;22.89;100.00
7670;BME280;3877;42.562;27.636;2022-07-10T00:35:11;100855.13;;;22.64;100.00
7670;BME280;3877;42.562;27.636;2022-07-10T00:37:38;100842.81;;;22.53;100.00
7670;BME280;3877;42.562;27.636;2022-07-10T00:40:06;100855.44;;;22.45;100.00
7670;BME280;3877;42.562;27.636;2022-07-10T00:42:34;100844.41;;;22.44;100.00
7670;BME280;3877;42.562;27.636;2022-07-10T00:45:01;100840.34;;;22.45;100.00
7670;BME280;3877;42.562;27.636;2022-07-10T00:47:30;100827.28;;;22.44;100.00
7670;BME280;3877;42.562;27.636;2022-07-10T00:49:57;100826.88;;;22.45;100.00
7670;BME280;3877;42.562;27.636;2022-07-10T00:52:25;100838.31;;;22.49;100.00
7670;BME280;3877;42.562;27.636;2022-07-10T00:54:52;100825.66;;;22.43;100.00
7670;BME280;3877;42.562;27.636;2022-07-10T00:57:20;100850.94;;;22.41;100.00
7670;BME280;3877;42.562;27.636;2022-07-10T00:59:49;100848.03;;;22.34;100.00
7670;BME280;3877;42.562;27.636;2022-07-10T01:02:16;100839.06;;;22.28;100.00
7670;BME280;3877;42.562;27.636;2022-07-10T01:04:45;100833.69;;;22.19;100.00
7670;BME280;3877;42.562;27.636;2022-07-10T01:07:14;100846.28;;;22.08;100.00
7670;BME280;3877;42.562;27.636;2022-07-10T01:09:42;100833.59;;;22.05;100.00
7670;BME280;3877;42.562;27.636;2022-07-10T01:12:11;100853.94;;;21.93;100.00
7670;BME280;3877;42.562;27.636;2022-07-10T01:14:39;100837.59;;;21.90;100.00
7670;BME280;3877;42.562;27.636;2022-07-10T01:17:06;100843.66;;;21.85;100.00
7670;BME280;3877;42.562;27.636;2022-07-10T01:19:34;100846.44;;;21.74;100.00
7670;BME280;3877;42.562;27.636;2022-07-10T01:22:03;100845.63;;;21.74;100.00
7670;BME280;3877;42.562;27.636;2022-07-10T01:24:31;100856.19;;;21.70;100.00
7670;BME280;3877;42.562;27.636;2022-07-10T01:26:58;100849.59;;;21.62;100.00
7670;BME280;3877;42.562;27.636;2022-07-10T01:29:25;100863.41;;;21.57;100.00
7670;BME280;3877;42.562;27.636;2022-07-10T01:31:53;100857.63;;;21.50;100.00
7670;BME280;3877;42.562;27.636;2022-07-10T01:34:20;100870.59;;;21.44;100.00
7670;BME280;3877;42.562;27.636;2022-07-10T01:36:48;100859.19;;;21.44;100.00
7670;BME280;3877;42.562;27.636;2022-07-10T01:39:17;100838.63;;;21.20;100.00
7670;BME280;3877;42.562;27.636;2022-07-10T01:41:44;100868.94;;;21.39;100.00
7670;BME280;3877;42.562;27.636;2022-07-10T01:44:12;100863.09;;;21.25;100.00
7670;BME280;3877;42.562;27.636;2022-07-10T01:46:43;100875.78;;;20.94;100.00
7670;BME280;3877;42.562;27.636;2022-07-10T01:49:11;100871.47;;;20.74;100.00
7670;BME280;3877;42.562;27.636;2022-07-10T01:51:39;100873.03;;;20.68;100.00
7670;BME280;3877;42.562;27.636;2022-07-10T01:54:06;100871.13;;;20.45;100.00
7670;BME280;3877;42.562;27.636;2022-07-10T01:56:35;100869.84;;;20.13;100.00
7670;BME280;3877;42.562;27.636;2022-07-10T01:59:03;100886.38;;;20.04;100.00
7670;BME280;3877;42.562;27.636;2022-07-10T02:01:31;100755.47;;;19.18;100.00
7670;BME280;3877;42.562;27.636;2022-07-10T02:03:58;100882.22;;;19.98;100.00
7670;BME280;3877;42.562;27.636;2022-07-10T02:06:43;100881.84;;;19.99;100.00
7670;BME280;3877;42.562;27.636;2022-07-10T02:09:11;100885.50;;;20.00;100.00
7670;BME280;3877;42.562;27.636;2022-07-10T02:11:42;100881.88;;;20.03;100.00
7670;BME280;3877;42.562;27.636;2022-07-10T02:14:09;100874.69;;;20.09;100.00
7670;BME280;3877;42.562;27.636;2022-07-10T02:16:37;100874.25;;;20.33;100.00
7670;BME280;3877;42.562;27.636;2022-07-10T02:19:04;100855.09;;;20.64;100.00
7670;BME280;3877;42.562;27.636;2022-07-10T02:21:32;100874.09;;;20.86;100.00
7670;BME280;3877;42.562;27.636;2022-07-10T02:23:59;100848.22;;;21.05;100.00
7670;BME280;3877;42.562;27.636;2022-07-10T02:26:26;100860.97;;;21.15;100.00
7670;BME280;3877;42.562;27.636;2022-07-10T02:28:55;100890.44;;;20.96;100.00
7670;BME280;3877;42.562;27.636;2022-07-10T02:31:22;100913.63;;;20.05;100.00
7670;BME280;3877;42.562;27.636;2022-07-10T02:33:50;100912.84;;;19.59;100.00
7670;BME280;3877;42.562;27.636;2022-07-10T02:36:17;100944.03;;;19.33;100.00
7670;BME280;3877;42.562;27.636;2022-07-10T02:38:44;100930.94;;;19.05;100.00
7670;BME280;3877;42.562;27.636;2022-07-10T02:41:12;100967.91;;;19.09;100.00
7670;BME280;3877;42.562;27.636;2022-07-10T02:43:39;100956.50;;;19.05;100.00
7670;BME280;3877;42.562;27.636;2022-07-10T02:46:08;100966.50;;;19.18;100.00
7670;BME280;3877;42.562;27.636;2022-07-10T02:48:35;100963.63;;;19.38;100.00
7670;BME280;3877;42.562;27.636;2022-07-10T02:51:03;100936.66;;;19.28;100.00
7670;BME280;3877;42.562;27.636;2022-07-10T02:53:30;100958.84;;;19.64;100.00
7670;BME280;3877;42.562;27.636;2022-07-10T02:55:57;100963.84;;;19.71;100.00
7670;BME280;3877;42.562;27.636;2022-07-10T02:58:24;100970.03;;;19.77;100.00
7670;BME280;3877;42.562;27.636;2022-07-10T03:00:52;100938.59;;;19.66;100.00
7670;BME280;3877;42.562;27.636;2022-07-10T03:03:21;100843.38;;;19.11;100.00
7670;BME280;3877;42.562;27.636;2022-07-10T03:05:48;100944.25;;;19.89;100.00
7670;BME280;3877;42.562;27.636;2022-07-10T03:08:15;100948.41;;;19.95;100.00
7670;BME280;3877;42.562;27.636;2022-07-10T03:10:43;100944.34;;;19.96;100.00
7670;BME280;3877;42.562;27.636;2022-07-10T03:13:10;100959.84;;;19.98;100.00
7670;BME280;3877;42.562;27.636;2022-07-10T03:15:38;100967.16;;;19.99;100.00
7670;BME280;3877;42.562;27.636;2022-07-10T03:18:06;100959.00;;;19.98;100.00
7670;BME280;3877;42.562;27.636;2022-07-10T03:20:34;100963.19;;;20.04;100.00
7670;BME280;3877;42.562;27.636;2022-07-10T03:23:01;100968.41;;;20.02;100.00
7670;BME280;3877;42.562;27.636;2022-07-10T03:25:29;100954.84;;;19.92;100.00
7670;BME280;3877;42.562;27.636;2022-07-10T03:27:56;100947.41;;;19.84;100.00
7670;BME280;3877;42.562;27.636;2022-07-10T03:30:23;100952.22;;;19.80;100.00
7670;BME280;3877;42.562;27.636;2022-07-10T03:32:51;100974.31;;;19.90;100.00
7670;BME280;3877;42.562;27.636;2022-07-10T03:35:18;100977.47;;;19.85;100.00
7670;BME280;3877;42.562;27.636;2022-07-10T03:37:47;100971.81;;;19.85;100.00
7670;BME280;3877;42.562;27.636;2022-07-10T03:40:14;100970.19;;;19.87;100.00
7670;BME280;3877;42.562;27.636;2022-07-10T03:42:41;100967.88;;;19.93;100.00
7670;BME280;3877;42.562;27.636;2022-07-10T03:45:09;100965.03;;;19.93;100.00
7670;BME280;3877;42.562;27.636;2022-07-10T03:47:36;100964.59;;;19.91;100.00
7670;BME280;3877;42.562;27.636;2022-07-10T03:50:04;100968.31;;;19.95;100.00
7670;BME280;3877;42.562;27.636;2022-07-10T03:52:32;100954.00;;;19.91;100.00
7670;BME280;3877;42.562;27.636;2022-07-10T03:55:00;100944.78;;;19.98;100.00
7670;BME280;3877;42.562;27.636;2022-07-10T03:57:28;100958.47;;;20.15;100.00
7670;BME280;3877;42.562;27.636;2022-07-10T04:00:13;100848.22;;;19.52;100.00
7670;BME280;3877;42.562;27.636;2022-07-10T04:02:41;100947.19;;;20.22;100.00
7670;BME280;3877;42.562;27.636;2022-07-10T04:05:09;100957.81;;;20.25;100.00
7670;BME280;3877;42.562;27.636;2022-07-10T04:07:37;100949.72;;;20.27;100.00
7670;BME280;3877;42.562;27.636;2022-07-10T04:10:06;100955.59;;;20.38;100.00
7670;BME280;3877;42.562;27.636;2022-07-10T04:12:35;100962.16;;;20.42;100.00
7670;BME280;3877;42.562;27.636;2022-07-10T04:15:03;100957.38;;;20.49;100.00
7670;BME280;3877;42.562;27.636;2022-07-10T04:17:30;100962.75;;;20.55;100.00
7670;BME280;3877;42.562;27.636;2022-07-10T04:19:58;100960.84;;;20.62;100.00
7670;BME280;3877;42.562;27.636;2022-07-10T04:22:25;100939.59;;;20.56;100.00
7670;BME280;3877;42.562;27.636;2022-07-10T04:24:53;100951.19;;;20.70;100.00
7670;BME280;3877;42.562;27.636;2022-07-10T04:27:22;100952.84;;;20.75;100.00
7670;BME280;3877;42.562;27.636;2022-07-10T04:29:49;100953.72;;;20.79;100.00
7670;BME280;3877;42.562;27.636;2022-07-10T04:32:16;100953.38;;;20.84;100.00
7670;BME280;3877;42.562;27.636;2022-07-10T04:34:44;100969.34;;;20.92;100.00
7670;BME280;3877;42.562;27.636;2022-07-10T04:37:11;100963.69;;;20.95;100.00
7670;BME280;3877;42.562;27.636;2022-07-10T04:39:39;100949.91;;;21.01;100.00
7670;BME280;3877;42.562;27.636;2022-07-10T04:42:07;100952.00;;;21.04;100.00
7670;BME280;3877;42.562;27.636;2022-07-10T04:44:36;100963.94;;;21.13;100.00
7670;BME280;3877;42.562;27.636;2022-07-10T04:47:04;100939.38;;;21.05;100.00
7670;BME280;3877;42.562;27.636;2022-07-10T04:49:33;100954.72;;;21.23;100.00
7670;BME280;3877;42.562;27.636;2022-07-10T04:52:01;100956.41;;;21.31;100.00
7670;BME280;3877;42.562;27.636;2022-07-10T04:54:28;100960.56;;;21.37;100.00
7670;BME280;3877;42.562;27.636;2022-07-10T04:56:55;100967.13;;;21.42;100.00
7670;BME280;3877;42.562;27.636;2022-07-10T04:59:22;100968.78;;;21.46;100.00
7670;BME280;3877;42.562;27.636;2022-07-10T05:01:51;100969.16;;;21.45;100.00
7670;BME280;3877;42.562;27.636;2022-07-10T05:04:18;100952.84;;;21.42;100.00
7670;BME280;3877;42.562;27.636;2022-07-10T05:06:46;100975.38;;;21.54;100.00
7670;BME280;3877;42.562;27.636;2022-07-10T05:09:13;100966.81;;;21.54;100.00
7670;BME280;3877;42.562;27.636;2022-07-10T05:11:40;100979.03;;;21.54;100.00
7670;BME280;3877;42.562;27.636;2022-07-10T05:14:08;100975.00;;;21.59;100.00
7670;BME280;3877;42.562;27.636;2022-07-10T05:16:35;100967.63;;;21.54;100.00
7670;BME280;3877;42.562;27.636;2022-07-10T05:19:04;100976.28;;;21.61;100.00
7670;BME280;3877;42.562;27.636;2022-07-10T05:21:31;100972.59;;;21.61;100.00
7670;BME280;3877;42.562;27.636;2022-07-10T05:23:59;100962.44;;;21.63;100.00
7670;BME280;3877;42.562;27.636;2022-07-10T05:26:26;100970.25;;;21.70;100.00
7670;BME280;3877;42.562;27.636;2022-07-10T05:28:53;100940.81;;;21.59;100.00
7670;BME280;3877;42.562;27.636;2022-07-10T05:31:21;100957.16;;;21.62;100.00
7670;BME280;3877;42.562;27.636;2022-07-10T05:33:48;100948.19;;;21.63;100.00
7670;BME280;3877;42.562;27.636;2022-07-10T05:36:17;100946.50;;;21.59;100.00
7670;BME280;3877;42.562;27.636;2022-07-10T05:38:44;100949.03;;;21.67;100.00
7670;BME280;3877;42.562;27.636;2022-07-10T05:41:11;100950.69;;;21.72;100.00
7670;BME280;3877;42.562;27.636;2022-07-10T05:43:39;100942.13;;;21.72;100.00
7670;BME280;3877;42.562;27.636;2022-07-10T05:46:07;100920.78;;;21.52;100.00
7670;BME280;3877;42.562;27.636;2022-07-10T05:48:34;100937.63;;;21.67;100.00
7670;BME280;3877;42.562;27.636;2022-07-10T05:51:01;100955.22;;;21.76;100.00
7670;BME280;3877;42.562;27.636;2022-07-10T05:53:30;100958.94;;;21.80;100.00
7670;BME280;3877;42.562;27.636;2022-07-10T05:56:00;100929.88;;;21.68;100.00
7670;BME280;3877;42.562;27.636;2022-07-10T05:58:27;100947.97;;;21.86;100.00
7670;BME280;3877;42.562;27.636;2022-07-10T06:00:55;100965.53;;;21.92;100.00
7670;BME280;3877;42.562;27.636;2022-07-10T06:03:22;100945.94;;;21.87;100.00
7670;BME280;3877;42.562;27.636;2022-07-10T06:05:50;100940.34;;;21.97;100.00
7670;BME280;3877;42.562;27.636;2022-07-10T06:08:17;100957.09;;;22.02;100.00
7670;BME280;3877;42.562;27.636;2022-07-10T06:10:46;100959.13;;;22.02;100.00
7670;BME280;3877;42.562;27.636;2022-07-10T06:13:14;100965.63;;;21.95;100.00
7670;BME280;3877;42.562;27.636;2022-07-10T06:15:41;100968.94;;;22.04;100.00
7670;BME280;3877;42.562;27.636;2022-07-10T06:18:08;100962.44;;;22.07;100.00
7670;BME280;3877;42.562;27.636;2022-07-10T06:20:35;100965.34;;;22.14;100.00
7670;BME280;3877;42.562;27.636;2022-07-10T06:23:03;100969.91;;;22.22;100.00
7670;BME280;3877;42.562;27.636;2022-07-10T06:25:30;100856.53;;;21.65;100.00
7670;BME280;3877;42.562;27.636;2022-07-10T06:27:58;100976.97;;;22.43;100.00
7670;BME280;3877;42.562;27.636;2022-07-10T06:30:26;100970.94;;;22.62;100.00
7670;BME280;3877;42.562;27.636;2022-07-10T06:32:53;100977.94;;;22.68;100.00
7670;BME280;3877;42.562;27.636;2022-07-10T06:35:20;100980.44;;;22.77;100.00
7670;BME280;3877;42.562;27.636;2022-07-10T06:37:48;100985.84;;;22.89;100.00
7670;BME280;3877;42.562;27.636;2022-07-10T06:40:15;100983.84;;;23.03;100.00
7670;BME280;3877;42.562;27.636;2022-07-10T06:42:44;100988.00;;;23.20;100.00
7670;BME280;3877;42.562;27.636;2022-07-10T06:45:13;100985.13;;;23.24;100.00
7670;BME280;3877;42.562;27.636;2022-07-10T06:47:40;100976.16;;;23.25;100.00
7670;BME280;3877;42.562;27.636;2022-07-10T06:50:24;100981.56;;;23.48;100.00
7670;BME280;3877;42.562;27.636;2022-07-10T06:52:51;100982.84;;;23.68;100.00
7670;BME280;3877;42.562;27.636;2022-07-10T06:55:19;100978.75;;;23.90;100.00
7670;BME280;3877;42.562;27.636;2022-07-10T06:57:47;100985.31;;;24.16;100.00
7670;BME280;3877;42.562;27.636;2022-07-10T07:00:16;100970.63;;;24.28;100.00
7670;BME280;3877;42.562;27.636;2022-07-10T07:02:43;100976.72;;;24.51;100.00
7670;BME280;3877;42.562;27.636;2022-07-10T07:05:11;100983.63;;;24.64;100.00
7670;BME280;3877;42.562;27.636;2022-07-10T07:07:39;100979.47;;;24.94;100.00
7670;BME280;3877;42.562;27.636;2022-07-10T07:10:08;100981.06;;;25.02;100.00
7670;BME280;3877;42.562;27.636;2022-07-10T07:12:36;100975.34;;;25.02;100.00
7670;BME280;3877;42.562;27.636;2022-07-10T07:15:04;100976.13;;;25.13;100.00
7670;BME280;3877;42.562;27.636;2022-07-10T07:17:33;100982.53;;;25.42;100.00
7670;BME280;3877;42.562;27.636;2022-07-10T07:20:23;100978.06;;;25.30;100.00
7670;BME280;3877;42.562;27.636;2022-07-10T07:23:08;100971.81;;;25.49;100.00
7670;BME280;3877;42.562;27.636;2022-07-10T07:25:39;100978.69;;;25.69;100.00
7670;BME280;3877;42.562;27.636;2022-07-10T07:28:08;100972.88;;;25.77;100.00
7670;BME280;3877;42.562;27.636;2022-07-10T07:30:36;100973.28;;;25.79;100.00
7670;BME280;3877;42.562;27.636;2022-07-10T07:33:05;100930.72;;;25.66;100.00
7670;BME280;3877;42.562;27.636;2022-07-10T07:35:32;100978.91;;;25.93;100.00
7670;BME280;3877;42.562;27.636;2022-07-10T07:38:01;100978.13;;;25.89;100.00
7670;BME280;3877;42.562;27.636;2022-07-10T07:40:28;100964.94;;;25.95;100.00
7670;BME280;3877;42.562;27.636;2022-07-10T07:42:56;100971.81;;;26.08;100.00
7670;BME280;3877;42.562;27.636;2022-07-10T07:45:24;100977.00;;;26.27;100.00
7670;BME280;3877;42.562;27.636;2022-07-10T07:47:53;100975.28;;;26.37;100.00
7670;BME280;3877;42.562;27.636;2022-07-10T07:50:23;100976.59;;;26.25;100.00
7670;BME280;3877;42.562;27.636;2022-07-10T07:52:51;100976.22;;;26.23;100.00
7670;BME280;3877;42.562;27.636;2022-07-10T07:55:19;100969.84;;;26.46;100.00
7670;BME280;3877;42.562;27.636;2022-07-10T07:57:47;100981.53;;;26.66;100.00
7670;BME280;3877;42.562;27.636;2022-07-10T08:00:15;100971.63;;;26.70;100.00
7670;BME280;3877;42.562;27.636;2022-07-10T08:02:44;100969.81;;;26.87;100.00
7670;BME280;3877;42.562;27.636;2022-07-10T08:05:11;100968.16;;;26.89;100.00
7670;BME280;3877;42.562;27.636;2022-07-10T08:07:41;100978.31;;;26.97;100.00
7670;BME280;3877;42.562;27.636;2022-07-10T08:10:12;100966.34;;;27.03;100.00
7670;BME280;3877;42.562;27.636;2022-07-10T08:12:40;100960.06;;;27.11;100.00
7670;BME280;3877;42.562;27.636;2022-07-10T08:15:09;100975.13;;;27.22;100.00
7670;BME280;3877;42.562;27.636;2022-07-10T08:17:37;100945.75;;;27.08;100.00
7670;BME280;3877;42.562;27.636;2022-07-10T08:20:07;100958.50;;;27.37;100.00
7670;BME280;3877;42.562;27.636;2022-07-10T08:22:35;100967.38;;;27.50;100.00
7670;BME280;3877;42.562;27.636;2022-07-10T08:25:04;100969.81;;;27.48;100.00
7670;BME280;3877;42.562;27.636;2022-07-10T08:27:32;100970.34;;;27.39;100.00
7670;BME280;3877;42.562;27.636;2022-07-10T08:29:59;100963.09;;;27.31;100.00
7670;BME280;3877;42.562;27.636;2022-07-10T08:32:27;100969.13;;;27.40;100.00
7670;BME280;3877;42.562;27.636;2022-07-10T08:34:54;100950.28;;;27.35;100.00
7670;BME280;3877;42.562;27.636;2022-07-10T08:37:22;100958.13;;;27.62;100.00
7670;BME280;3877;42.562;27.636;2022-07-10T08:39:49;100960.22;;;27.31;100.00
7670;BME280;3877;42.562;27.636;2022-07-10T08:42:18;100958.38;;;27.44;100.00
7670;BME280;3877;42.562;27.636;2022-07-10T08:44:47;100966.88;;;27.55;100.00
7670;BME280;3877;42.562;27.636;2022-07-10T08:47:18;100961.00;;;27.62;100.00
7670;BME280;3877;42.562;27.636;2022-07-10T08:49:47;100963.72;;;27.72;100.00
7670;BME280;3877;42.562;27.636;2022-07-10T08:52:25;100962.22;;;27.34;100.00
7670;BME280;3877;42.562;27.636;2022-07-10T08:54:53;100974.41;;;27.72;100.00
7670;BME280;3877;42.562;27.636;2022-07-10T08:57:22;100934.78;;;27.83;100.00
7670;BME280;3877;42.562;27.636;2022-07-10T08:59:50;100977.88;;;28.13;100.00
7670;BME280;3877;42.562;27.636;2022-07-10T09:02:17;100982.59;;;28.00;98.56
7670;BME280;3877;42.562;27.636;2022-07-10T09:04:45;100981.41;;;27.98;100.00
7670;BME280;3877;42.562;27.636;2022-07-10T09:07:13;100982.63;;;28.23;98.69
7670;BME280;3877;42.562;27.636;2022-07-10T09:09:52;100978.69;;;28.37;96.89
7670;BME280;3877;42.562;27.636;2022-07-10T09:12:23;100975.31;;;28.19;98.64
7670;BME280;3877;42.562;27.636;2022-07-10T09:14:51;100960.72;;;28.30;98.36
7670;BME280;3877;42.562;27.636;2022-07-10T09:17:19;100973.88;;;28.54;94.95
7670;BME280;3877;42.562;27.636;2022-07-10T09:19:46;100965.16;;;28.34;87.99
7670;BME280;3877;42.562;27.636;2022-07-10T09:22:13;100970.38;;;28.19;91.74
7670;BME280;3877;42.562;27.636;2022-07-10T09:24:43;100959.81;;;28.09;97.99
7670;BME280;3877;42.562;27.636;2022-07-10T09:27:12;100955.50;;;27.98;95.81
7670;BME280;3877;42.562;27.636;2022-07-10T09:29:49;100959.19;;;27.98;100.00
7670;BME280;3877;42.562;27.636;2022-07-10T09:32:19;100955.34;;;28.08;96.29
7670;BME280;3877;42.562;27.636;2022-07-10T09:34:47;100911.75;;;28.06;92.74
7670;BME280;3877;42.562;27.636;2022-07-10T09:37:22;100919.72;;;28.42;94.44
7670;BME280;3877;42.562;27.636;2022-07-10T09:39:54;100932.59;;;28.14;96.25
7670;BME280;3877;42.562;27.636;2022-07-10T09:42:26;100952.13;;;28.49;100.00
7670;BME280;3877;42.562;27.636;2022-07-10T09:45:18;100957.66;;;28.83;93.05
7670;BME280;3877;42.562;27.636;2022-07-10T09:47:54;100952.78;;;29.00;86.59
7670;BME280;3877;42.562;27.636;2022-07-10T09:50:26;100843.34;;;28.34;86.50
7670;BME280;3877;42.562;27.636;2022-07-10T09:52:56;100949.97;;;29.16;84.45
7670;BME280;3877;42.562;27.636;2022-07-10T09:55:25;100906.91;;;29.05;81.35
7670;BME280;3877;42.562;27.636;2022-07-10T09:57:56;100940.59;;;29.48;84.64
7670;BME280;3877;42.562;27.636;2022-07-10T10:00:28;100937.38;;;29.46;81.18
7670;BME280;3877;42.562;27.636;2022-07-10T10:02:57;100938.81;;;29.54;79.92
7670;BME280;3877;42.562;27.636;2022-07-10T10:05:32;100911.16;;;29.37;80.25
7670;BME280;3877;42.562;27.636;2022-07-10T10:08:05;100938.25;;;29.43;81.07
7670;BME280;3877;42.562;27.636;2022-07-10T10:10:38;100934.28;;;29.53;88.50
7670;BME280;3877;42.562;27.636;2022-07-10T10:13:08;100934.13;;;29.04;80.62
7670;BME280;3877;42.562;27.636;2022-07-10T10:15:39;100927.53;;;29.04;79.49
7670;BME280;3877;42.562;27.636;2022-07-10T10:18:07;100922.38;;;29.15;73.02
7670;BME280;3877;42.562;27.636;2022-07-10T10:20:36;100927.75;;;29.33;73.34
7670;BME280;3877;42.562;27.636;2022-07-10T10:23:12;100927.41;;;28.72;73.93
7670;BME280;3877;42.562;27.636;2022-07-10T10:25:40;100932.69;;;28.53;78.70
7670;BME280;3877;42.562;27.636;2022-07-10T10:28:08;100923.63;;;28.55;82.18
7670;BME280;3877;42.562;27.636;2022-07-10T10:30:39;100938.94;;;28.72;84.00
7670;BME280;3877;42.562;27.636;2022-07-10T10:33:43;100932.59;;;29.00;88.86
7670;BME280;3877;42.562;27.636;2022-07-10T10:36:14;100913.31;;;29.13;86.54
7670;BME280;3877;42.562;27.636;2022-07-10T10:39:00;100917.78;;;29.18;71.15
7670;BME280;3877;42.562;27.636;2022-07-10T10:41:29;100921.94;;;29.17;71.13
7670;BME280;3877;42.562;27.636;2022-07-10T10:44:21;100916.06;;;29.40;68.47
7670;BME280;3877;42.562;27.636;2022-07-10T10:47:06;100915.53;;;29.61;67.42
7670;BME280;3877;42.562;27.636;2022-07-10T10:49:55;100916.28;;;29.65;73.93
7670;BME280;3877;42.562;27.636;2022-07-10T10:52:27;100913.16;;;29.92;69.82
7670;BME280;3877;42.562;27.636;2022-07-10T10:55:03;100920.59;;;29.57;82.00
7670;BME280;3877;42.562;27.636;2022-07-10T10:57:43;100925.75;;;29.30;100.00
7670;BME280;3877;42.562;27.636;2022-07-10T11:00:33;100920.03;;;29.46;100.00
7670;BME280;3877;42.562;27.636;2022-07-10T11:03:23;100918.75;;;29.31;100.00
7670;BME280;3877;42.562;27.636;2022-07-10T11:05:51;100909.38;;;28.87;100.00
7670;BME280;3877;42.562;27.636;2022-07-10T11:08:38;100927.34;;;28.75;100.00
7670;BME280;3877;42.562;27.636;2022-07-10T11:11:37;100927.47;;;28.68;100.00
7670;BME280;3877;42.562;27.636;2022-07-10T11:14:08;100925.75;;;28.70;100.00
7670;BME280;3877;42.562;27.636;2022-07-10T11:16:35;100930.16;;;28.98;100.00
7670;BME280;3877;42.562;27.636;2022-07-10T11:19:06;100922.84;;;29.30;100.00
7670;BME280;3877;42.562;27.636;2022-07-10T11:21:43;100925.47;;;29.04;100.00
7670;BME280;3877;42.562;27.636;2022-07-10T11:24:25;100922.47;;;28.72;100.00
7670;BME280;3877;42.562;27.636;2022-07-10T11:27:06;100919.72;;;28.42;100.00
7670;BME280;3877;42.562;27.636;2022-07-10T11:29:37;100914.59;;;28.53;100.00
7670;BME280;3877;42.562;27.636;2022-07-10T11:32:05;100926.91;;;28.96;100.00
7670;BME280;3877;42.562;27.636;2022-07-10T11:34:38;100917.34;;;29.55;100.00
7670;BME280;3877;42.562;27.636;2022-07-10T11:37:14;100915.94;;;29.79;100.00
7670;BME280;3877;42.562;27.636;2022-07-10T11:39:42;100920.09;;;29.94;100.00
7670;BME280;3877;42.562;27.636;2022-07-10T11:42:10;100926.00;;;29.71;100.00
7670;BME280;3877;42.562;27.636;2022-07-10T11:44:37;100927.91;;;29.26;100.00
7670;BME280;3877;42.562;27.636;2022-07-10T11:47:05;100926.44;;;29.18;100.00
7670;BME280;3877;42.562;27.636;2022-07-10T11:49:33;100921.47;;;29.18;100.00
7670;BME280;3877;42.562;27.636;2022-07-10T11:52:03;100921.47;;;29.18;100.00
7670;BME280;3877;42.562;27.636;2022-07-10T11:54:31;100921.91;;;29.36;100.00
7670;BME280;3877;42.562;27.636;2022-07-10T11:57:05;100933.91;;;29.51;100.00
7670;BME280;3877;42.562;27.636;2022-07-10T11:59:34;100922.28;;;29.19;99.37
7670;BME280;3877;42.562;27.636;2022-07-10T12:02:01;100912.53;;;29.12;100.00
7670;BME280;3877;42.562;27.636;2022-07-10T12:04:30;100925.19;;;28.99;100.00
7670;BME280;3877;42.562;27.636;2022-07-10T12:06:58;100918.75;;;28.91;100.00
7670;BME280;3877;42.562;27.636;2022-07-10T12:09:27;100929.09;;;28.69;100.00
7670;BME280;3877;42.562;27.636;2022-07-10T12:11:59;100926.38;;;28.82;100.00
7670;BME280;3877;42.562;27.636;2022-07-10T12:14:26;100924.75;;;28.81;100.00
7670;BME280;3877;42.562;27.636;2022-07-10T12:16:55;100928.31;;;28.88;100.00
7670;BME280;3877;42.562;27.636;2022-07-10T12:19:25;100926.34;;;28.62;93.34
7670;BME280;3877;42.562;27.636;2022-07-10T12:21:53;100914.06;;;28.38;100.00
7670;BME280;3877;42.562;27.636;2022-07-10T12:24:21;100934.69;;;28.37;100.00
7670;BME280;3877;42.562;27.636;2022-07-10T12:26:51;100942.28;;;28.47;100.00
7670;BME280;3877;42.562;27.636;2022-07-10T12:29:21;100916.56;;;28.79;100.00
7670;BME280;3877;42.562;27.636;2022-07-10T12:31:50;100933.09;;;29.14;99.72
7670;BME280;3877;42.562;27.636;2022-07-10T12:34:19;100940.63;;;29.08;100.00
7670;BME280;3877;42.562;27.636;2022-07-10T12:36:48;100928.44;;;29.01;100.00
7670;BME280;3877;42.562;27.636;2022-07-10T12:39:17;100927.63;;;29.00;100.00
7670;BME280;3877;42.562;27.636;2022-07-10T12:42:00;100930.06;;;29.22;100.00
7670;BME280;3877;42.562;27.636;2022-07-10T12:44:37;100931.84;;;29.16;100.00
7670;BME280;3877;42.562;27.636;2022-07-10T12:47:06;100854.53;;;28.71;100.00
7670;BME280;3877;42.562;27.636;2022-07-10T12:49:53;100937.69;;;29.32;100.00
7670;BME280;3877;42.562;27.636;2022-07-10T12:52:23;100925.25;;;29.35;100.00
7670;BME280;3877;42.562;27.636;2022-07-10T12:55:06;100924.34;;;29.38;100.00
7670;BME280;3877;42.562;27.636;2022-07-10T12:57:51;100920.50;;;29.25;100.00
7670;BME280;3877;42.562;27.636;2022-07-10T13:00:21;100909.19;;;29.14;98.04
7670;BME280;3877;42.562;27.636;2022-07-10T13:02:50;100913.19;;;29.56;100.00
7670;BME280;3877;42.562;27.636;2022-07-10T13:05:31;100907.09;;;30.03;100.00